sensor_id;sensor_type;location;lat;lon;timestamp;temperature;humidity
66102;HTU21D;52883;51.094;5.880;2024-01-10T00:02:00;-6.17;118.17
66102;HTU21D;52883;51.094;5.880;2024-01-10T00:04:25;-6.19;118.99
66102;HTU21D;52883;51.094;5.880;2024-01-10T00:06:51;-6.22;118.99
66102;HTU21D;52883;51.094;5.880;2024-01-10T00:09:17;-6.23;118.99
66102;HTU21D;52883;51.094;5.880;2024-01-10T00:11:43;-6.27;117.56
66102;HTU21D;52883;51.094;5.880;2024-01-10T00:14:08;-6.30;118.99
66102;HTU21D;52883;51.094;5.880;2024-01-10T00:16:34;-6.33;118.99
66102;HTU21D;52883;51.094;5.880;2024-01-10T00:19:00;-6.37;118.99
66102;HTU21D;52883;51.094;5.880;2024-01-10T00:21:26;-6.43;118.99
66102;HTU21D;52883;51.094;5.880;2024-01-10T00:23:52;-6.43;118.99
66102;HTU21D;52883;51.094;5.880;2024-01-10T00:26:17;-6.46;118.99
66102;HTU21D;52883;51.094;5.880;2024-01-10T00:28:43;-6.43;118.99
66102;HTU21D;52883;51.094;5.880;2024-01-10T00:31:12;-6.42;118.99
66102;HTU21D;52883;51.094;5.880;2024-01-10T00:33:38;-6.43;118.99
66102;HTU21D;52883;51.094;5.880;2024-01-10T00:36:04;-6.36;118.99
66102;HTU21D;52883;51.094;5.880;2024-01-10T00:38:29;-6.37;118.99
66102;HTU21D;52883;51.094;5.880;2024-01-10T00:40:55;-6.45;118.99
66102;HTU21D;52883;51.094;5.880;2024-01-10T00:43:21;-6.50;118.99
66102;HTU21D;52883;51.094;5.880;2024-01-10T00:45:47;-6.52;118.99
66102;HTU21D;52883;51.094;5.880;2024-01-10T00:48:12;-6.55;118.99
66102;HTU21D;52883;51.094;5.880;2024-01-10T00:50:38;-6.50;118.99
66102;HTU21D;52883;51.094;5.880;2024-01-10T00:53:03;-6.49;118.99
66102;HTU21D;52883;51.094;5.880;2024-01-10T00:55:29;-6.46;118.99
66102;HTU21D;52883;51.094;5.880;2024-01-10T00:57:54;-6.46;118.99
66102;HTU21D;52883;51.094;5.880;2024-01-10T01:00:20;-6.45;118.99
66102;HTU21D;52883;51.094;5.880;2024-01-10T01:02:46;-6.44;118.99
66102;HTU21D;52883;51.094;5.880;2024-01-10T01:05:11;-6.48;118.99
66102;HTU21D;52883;51.094;5.880;2024-01-10T01:07:37;-6.49;118.99
66102;HTU21D;52883;51.094;5.880;2024-01-10T01:10:03;-6.51;118.99
66102;HTU21D;52883;51.094;5.880;2024-01-10T01:12:29;-6.56;118.99
66102;HTU21D;52883;51.094;5.880;2024-01-10T01:14:54;-6.59;118.99
66102;HTU21D;52883;51.094;5.880;2024-01-10T01:17:20;-6.55;118.99
66102;HTU21D;52883;51.094;5.880;2024-01-10T01:19:46;-6.59;118.99
66102;HTU21D;52883;51.094;5.880;2024-01-10T01:22:11;-6.58;118.99
66102;HTU21D;52883;51.094;5.880;2024-01-10T01:24:37;-6.53;118.99
66102;HTU21D;52883;51.094;5.880;2024-01-10T01:27:03;-6.51;118.99
66102;HTU21D;52883;51.094;5.880;2024-01-10T01:29:28;-6.50;118.99
66102;HTU21D;52883;51.094;5.880;2024-01-10T01:31:54;-6.51;118.99
66102;HTU21D;52883;51.094;5.880;2024-01-10T01:34:20;-6.56;118.99
66102;HTU21D;52883;51.094;5.880;2024-01-10T01:36:46;-6.60;118.99
66102;HTU21D;52883;51.094;5.880;2024-01-10T01:39:11;-6.61;118.99
66102;HTU21D;52883;51.094;5.880;2024-01-10T01:41:39;-6.72;118.99
66102;HTU21D;52883;51.094;5.880;2024-01-10T01:44:05;-6.82;118.99
66102;HTU21D;52883;51.094;5.880;2024-01-10T01:46:31;-6.93;118.99
66102;HTU21D;52883;51.094;5.880;2024-01-10T01:48:58;-6.97;118.99
66102;HTU21D;52883;51.094;5.880;2024-01-10T01:51:26;-7.08;118.99
66102;HTU21D;52883;51.094;5.880;2024-01-10T01:53:53;-7.15;118.99
66102;HTU21D;52883;51.094;5.880;2024-01-10T01:56:20;-7.21;118.99
66102;HTU21D;52883;51.094;5.880;2024-01-10T01:58:50;-7.27;118.99
66102;HTU21D;52883;51.094;5.880;2024-01-10T02:01:16;-7.30;118.99
66102;HTU21D;52883;51.094;5.880;2024-01-10T02:03:42;-7.30;118.99
66102;HTU21D;52883;51.094;5.880;2024-01-10T02:06:07;-7.25;118.99
66102;HTU21D;52883;51.094;5.880;2024-01-10T02:08:34;-7.22;118.99
66102;HTU21D;52883;51.094;5.880;2024-01-10T02:11:02;-7.22;118.99
66102;HTU21D;52883;51.094;5.880;2024-01-10T02:13:29;-7.17;118.99
66102;HTU21D;52883;51.094;5.880;2024-01-10T02:15:55;-7.16;118.99
66102;HTU21D;52883;51.094;5.880;2024-01-10T02:18:21;-7.21;118.99
66102;HTU21D;52883;51.094;5.880;2024-01-10T02:20:47;-7.19;118.99
66102;HTU21D;52883;51.094;5.880;2024-01-10T02:23:13;-7.18;118.99
66102;HTU21D;52883;51.094;5.880;2024-01-10T02:25:40;-7.17;118.99
66102;HTU21D;52883;51.094;5.880;2024-01-10T02:28:06;-7.25;118.99
66102;HTU21D;52883;51.094;5.880;2024-01-10T02:30:33;-7.30;118.99
66102;HTU21D;52883;51.094;5.880;2024-01-10T02:32:59;-7.31;118.99
66102;HTU21D;52883;51.094;5.880;2024-01-10T02:35:24;-7.39;118.99
66102;HTU21D;52883;51.094;5.880;2024-01-10T02:37:50;-7.46;118.99
66102;HTU21D;52883;51.094;5.880;2024-01-10T02:40:17;-7.51;118.99
66102;HTU21D;52883;51.094;5.880;2024-01-10T02:42:43;-7.59;118.99
66102;HTU21D;52883;51.094;5.880;2024-01-10T02:45:09;-7.62;118.99
66102;HTU21D;52883;51.094;5.880;2024-01-10T02:47:34;-7.60;118.99
66102;HTU21D;52883;51.094;5.880;2024-01-10T02:50:01;-7.61;118.99
66102;HTU21D;52883;51.094;5.880;2024-01-10T02:52:27;-7.69;118.99
66102;HTU21D;52883;51.094;5.880;2024-01-10T02:54:53;-7.77;118.99
66102;HTU21D;52883;51.094;5.880;2024-01-10T02:57:18;-7.86;118.99
66102;HTU21D;52883;51.094;5.880;2024-01-10T02:59:44;-7.89;118.99
66102;HTU21D;52883;51.094;5.880;2024-01-10T03:02:10;-7.82;118.99
66102;HTU21D;52883;51.094;5.880;2024-01-10T03:04:35;-7.83;118.99
66102;HTU21D;52883;51.094;5.880;2024-01-10T03:07:01;-7.81;118.99
66102;HTU21D;52883;51.094;5.880;2024-01-10T03:09:26;-7.83;118.99
66102;HTU21D;52883;51.094;5.880;2024-01-10T03:11:52;-7.83;118.99
66102;HTU21D;52883;51.094;5.880;2024-01-10T03:14:18;-7.84;118.99
66102;HTU21D;52883;51.094;5.880;2024-01-10T03:16:43;-7.81;118.99
66102;HTU21D;52883;51.094;5.880;2024-01-10T03:19:09;-7.85;118.99
66102;HTU21D;52883;51.094;5.880;2024-01-10T03:21:35;-7.83;118.99
66102;HTU21D;52883;51.094;5.880;2024-01-10T03:24:01;-7.83;118.99
66102;HTU21D;52883;51.094;5.880;2024-01-10T03:26:28;-7.77;118.99
66102;HTU21D;52883;51.094;5.880;2024-01-10T03:28:56;-7.75;118.99
66102;HTU21D;52883;51.094;5.880;2024-01-10T03:31:22;-7.76;118.99
66102;HTU21D;52883;51.094;5.880;2024-01-10T03:33:48;-7.80;118.99
66102;HTU21D;52883;51.094;5.880;2024-01-10T03:36:18;-7.85;118.99
66102;HTU21D;52883;51.094;5.880;2024-01-10T03:38:44;-7.93;118.99
66102;HTU21D;52883;51.094;5.880;2024-01-10T03:41:17;-7.97;118.99
66102;HTU21D;52883;51.094;5.880;2024-01-10T03:43:43;-7.90;118.99
66102;HTU21D;52883;51.094;5.880;2024-01-10T03:46:09;-7.91;118.99
66102;HTU21D;52883;51.094;5.880;2024-01-10T03:48:35;-7.87;118.99
66102;HTU21D;52883;51.094;5.880;2024-01-10T03:51:03;-7.95;118.99
66102;HTU21D;52883;51.094;5.880;2024-01-10T03:53:28;-8.04;118.99
66102;HTU21D;52883;51.094;5.880;2024-01-10T03:55:54;-7.94;118.99
66102;HTU21D;52883;51.094;5.880;2024-01-10T03:58:20;-7.89;118.99
66102;HTU21D;52883;51.094;5.880;2024-01-10T04:00:46;-7.84;118.99
66102;HTU21D;52883;51.094;5.880;2024-01-10T04:03:11;-7.78;118.99
66102;HTU21D;52883;51.094;5.880;2024-01-10T04:05:37;-7.76;118.99
66102;HTU21D;52883;51.094;5.880;2024-01-10T04:08:03;-7.69;118.99
66102;HTU21D;52883;51.094;5.880;2024-01-10T04:10:29;-7.55;118.99
66102;HTU21D;52883;51.094;5.880;2024-01-10T04:12:55;-7.50;118.99
66102;HTU21D;52883;51.094;5.880;2024-01-10T04:15:20;-7.46;118.99
66102;HTU21D;52883;51.094;5.880;2024-01-10T04:17:46;-7.36;118.99
66102;HTU21D;52883;51.094;5.880;2024-01-10T04:20:11;-7.33;118.99
66102;HTU21D;52883;51.094;5.880;2024-01-10T04:22:37;-7.33;118.99
66102;HTU21D;52883;51.094;5.880;2024-01-10T04:25:05;-7.44;118.99
66102;HTU21D;52883;51.094;5.880;2024-01-10T04:27:31;-7.54;118.99
66102;HTU21D;52883;51.094;5.880;2024-01-10T04:29:56;-7.54;118.99
66102;HTU21D;52883;51.094;5.880;2024-01-10T04:32:22;-7.59;118.99
66102;HTU21D;52883;51.094;5.880;2024-01-10T04:34:47;-7.62;118.99
66102;HTU21D;52883;51.094;5.880;2024-01-10T04:37:13;-7.64;118.99
66102;HTU21D;52883;51.094;5.880;2024-01-10T04:39:40;-7.63;118.99
66102;HTU21D;52883;51.094;5.880;2024-01-10T04:42:08;-7.59;118.99
66102;HTU21D;52883;51.094;5.880;2024-01-10T04:44:33;-7.54;118.99
66102;HTU21D;52883;51.094;5.880;2024-01-10T04:46:59;-7.49;118.99
66102;HTU21D;52883;51.094;5.880;2024-01-10T04:49:25;-7.42;118.99
66102;HTU21D;52883;51.094;5.880;2024-01-10T04:51:50;-7.44;118.99
66102;HTU21D;52883;51.094;5.880;2024-01-10T04:54:16;-7.38;118.99
66102;HTU21D;52883;51.094;5.880;2024-01-10T04:56:42;-7.39;118.99
66102;HTU21D;52883;51.094;5.880;2024-01-10T04:59:08;-7.49;118.99
66102;HTU21D;52883;51.094;5.880;2024-01-10T05:01:33;-7.52;118.99
66102;HTU21D;52883;51.094;5.880;2024-01-10T05:03:59;-7.47;118.99
66102;HTU21D;52883;51.094;5.880;2024-01-10T05:06:24;-7.41;118.99
66102;HTU21D;52883;51.094;5.880;2024-01-10T05:08:50;-7.35;118.99
66102;HTU21D;52883;51.094;5.880;2024-01-10T05:11:16;-7.31;118.99
66102;HTU21D;52883;51.094;5.880;2024-01-10T05:13:44;-7.26;118.99
66102;HTU21D;52883;51.094;5.880;2024-01-10T05:16:10;-7.27;118.99
66102;HTU21D;52883;51.094;5.880;2024-01-10T05:18:36;-7.30;118.99
66102;HTU21D;52883;51.094;5.880;2024-01-10T05:21:03;-7.27;118.99
66102;HTU21D;52883;51.094;5.880;2024-01-10T05:23:29;-7.26;118.99
66102;HTU21D;52883;51.094;5.880;2024-01-10T05:25:55;-7.25;118.99
66102;HTU21D;52883;51.094;5.880;2024-01-10T05:28:21;-7.26;118.99
66102;HTU21D;52883;51.094;5.880;2024-01-10T05:30:46;-7.23;118.99
66102;HTU21D;52883;51.094;5.880;2024-01-10T05:33:12;-7.27;118.99
66102;HTU21D;52883;51.094;5.880;2024-01-10T05:35:38;-7.32;118.99
66102;HTU21D;52883;51.094;5.880;2024-01-10T05:38:04;-7.42;118.99
66102;HTU21D;52883;51.094;5.880;2024-01-10T05:40:30;-7.50;118.99
66102;HTU21D;52883;51.094;5.880;2024-01-10T05:42:57;-7.52;118.99
66102;HTU21D;52883;51.094;5.880;2024-01-10T05:45:25;-7.52;118.99
66102;HTU21D;52883;51.094;5.880;2024-01-10T05:47:51;-7.51;118.99
66102;HTU21D;52883;51.094;5.880;2024-01-10T05:50:17;-7.55;118.99
66102;HTU21D;52883;51.094;5.880;2024-01-10T05:52:43;-7.59;118.99
66102;HTU21D;52883;51.094;5.880;2024-01-10T05:55:09;-7.60;118.99
66102;HTU21D;52883;51.094;5.880;2024-01-10T05:57:38;-7.60;118.99
66102;HTU21D;52883;51.094;5.880;2024-01-10T06:00:04;-7.59;118.99
66102;HTU21D;52883;51.094;5.880;2024-01-10T06:02:38;-7.54;118.99
66102;HTU21D;52883;51.094;5.880;2024-01-10T06:05:06;-7.46;118.99
66102;HTU21D;52883;51.094;5.880;2024-01-10T06:07:32;-7.48;118.99
66102;HTU21D;52883;51.094;5.880;2024-01-10T06:09:57;-7.49;118.99
66102;HTU21D;52883;51.094;5.880;2024-01-10T06:12:23;-7.53;118.99
66102;HTU21D;52883;51.094;5.880;2024-01-10T06:14:49;-7.51;118.99
66102;HTU21D;52883;51.094;5.880;2024-01-10T06:17:15;-7.51;118.99
66102;HTU21D;52883;51.094;5.880;2024-01-10T06:19:41;-7.61;118.99
66102;HTU21D;52883;51.094;5.880;2024-01-10T06:22:07;-7.65;118.99
66102;HTU21D;52883;51.094;5.880;2024-01-10T06:24:32;-7.65;118.99
66102;HTU21D;52883;51.094;5.880;2024-01-10T06:26:58;-7.63;118.99
66102;HTU21D;52883;51.094;5.880;2024-01-10T06:29:24;-7.62;118.99
66102;HTU21D;52883;51.094;5.880;2024-01-10T06:31:50;-7.62;118.99
66102;HTU21D;52883;51.094;5.880;2024-01-10T06:34:16;-7.56;118.99
66102;HTU21D;52883;51.094;5.880;2024-01-10T06:36:41;-7.48;118.99
66102;HTU21D;52883;51.094;5.880;2024-01-10T06:39:09;-7.41;118.99
66102;HTU21D;52883;51.094;5.880;2024-01-10T06:41:38;-7.36;118.99
66102;HTU21D;52883;51.094;5.880;2024-01-10T06:44:04;-7.34;118.99
66102;HTU21D;52883;51.094;5.880;2024-01-10T06:46:29;-7.38;118.99
66102;HTU21D;52883;51.094;5.880;2024-01-10T06:48:56;-7.39;118.99
66102;HTU21D;52883;51.094;5.880;2024-01-10T06:51:21;-7.38;118.99
66102;HTU21D;52883;51.094;5.880;2024-01-10T06:53:47;-7.32;118.99
66102;HTU21D;52883;51.094;5.880;2024-01-10T06:56:12;-7.34;118.99
66102;HTU21D;52883;51.094;5.880;2024-01-10T06:58:39;-7.36;118.99
66102;HTU21D;52883;51.094;5.880;2024-01-10T07:01:10;-7.30;118.99
66102;HTU21D;52883;51.094;5.880;2024-01-10T07:03:39;-7.22;118.99
66102;HTU21D;52883;51.094;5.880;2024-01-10T07:06:05;-7.22;118.99
66102;HTU21D;52883;51.094;5.880;2024-01-10T07:08:30;-7.24;118.99
66102;HTU21D;52883;51.094;5.880;2024-01-10T07:10:56;-7.22;118.99
66102;HTU21D;52883;51.094;5.880;2024-01-10T07:13:23;-7.21;118.99
66102;HTU21D;52883;51.094;5.880;2024-01-10T07:15:48;-7.21;118.99
66102;HTU21D;52883;51.094;5.880;2024-01-10T07:18:16;-7.21;118.99
66102;HTU21D;52883;51.094;5.880;2024-01-10T07:20:42;-7.24;118.99
66102;HTU21D;52883;51.094;5.880;2024-01-10T07:23:07;-7.35;118.99
66102;HTU21D;52883;51.094;5.880;2024-01-10T07:25:33;-7.38;118.99
66102;HTU21D;52883;51.094;5.880;2024-01-10T07:27:59;-7.46;118.99
66102;HTU21D;52883;51.094;5.880;2024-01-10T07:30:26;-7.52;118.99
66102;HTU21D;52883;51.094;5.880;2024-01-10T07:32:52;-7.59;118.99
66102;HTU21D;52883;51.094;5.880;2024-01-10T07:35:17;-7.53;118.99
66102;HTU21D;52883;51.094;5.880;2024-01-10T07:37:43;-7.52;118.99
66102;HTU21D;52883;51.094;5.880;2024-01-10T07:40:09;-7.55;118.99
66102;HTU21D;52883;51.094;5.880;2024-01-10T07:42:37;-7.52;118.99
66102;HTU21D;52883;51.094;5.880;2024-01-10T07:45:03;-7.55;118.99
66102;HTU21D;52883;51.094;5.880;2024-01-10T07:47:33;-7.62;118.99
66102;HTU21D;52883;51.094;5.880;2024-01-10T07:50:06;-7.68;118.99
66102;HTU21D;52883;51.094;5.880;2024-01-10T07:52:33;-7.72;118.99
66102;HTU21D;52883;51.094;5.880;2024-01-10T07:55:00;-7.68;118.99
66102;HTU21D;52883;51.094;5.880;2024-01-10T07:57:26;-7.61;118.99
66102;HTU21D;52883;51.094;5.880;2024-01-10T07:59:53;-7.63;118.99
66102;HTU21D;52883;51.094;5.880;2024-01-10T08:02:19;-7.60;118.99
66102;HTU21D;52883;51.094;5.880;2024-01-10T08:04:44;-7.57;118.99
66102;HTU21D;52883;51.094;5.880;2024-01-10T08:07:10;-7.60;118.99
66102;HTU21D;52883;51.094;5.880;2024-01-10T08:09:36;-7.53;118.99
66102;HTU21D;52883;51.094;5.880;2024-01-10T08:12:03;-7.47;118.99
66102;HTU21D;52883;51.094;5.880;2024-01-10T08:14:29;-7.39;118.99
66102;HTU21D;52883;51.094;5.880;2024-01-10T08:16:54;-7.21;118.99
66102;HTU21D;52883;51.094;5.880;2024-01-10T08:19:24;-7.11;118.99
66102;HTU21D;52883;51.094;5.880;2024-01-10T08:21:52;-7.01;118.99
66102;HTU21D;52883;51.094;5.880;2024-01-10T08:24:19;-6.82;118.99
66102;HTU21D;52883;51.094;5.880;2024-01-10T08:26:44;-6.65;118.99
66102;HTU21D;52883;51.094;5.880;2024-01-10T08:29:10;-6.51;118.99
66102;HTU21D;52883;51.094;5.880;2024-01-10T08:31:35;-6.32;118.99
66102;HTU21D;52883;51.094;5.880;2024-01-10T08:34:01;-6.01;118.99
66102;HTU21D;52883;51.094;5.880;2024-01-10T08:36:40;-5.70;118.99
66102;HTU21D;52883;51.094;5.880;2024-01-10T08:39:06;-5.44;118.99
66102;HTU21D;52883;51.094;5.880;2024-01-10T08:41:32;-5.24;118.99
66102;HTU21D;52883;51.094;5.880;2024-01-10T08:43:58;-5.08;118.99
66102;HTU21D;52883;51.094;5.880;2024-01-10T08:46:24;-4.90;118.99
66102;HTU21D;52883;51.094;5.880;2024-01-10T08:48:50;-4.76;118.99
66102;HTU21D;52883;51.094;5.880;2024-01-10T08:51:16;-4.72;118.99
66102;HTU21D;52883;51.094;5.880;2024-01-10T08:53:43;-4.75;118.99
66102;HTU21D;52883;51.094;5.880;2024-01-10T08:56:09;-4.84;118.99
66102;HTU21D;52883;51.094;5.880;2024-01-10T08:58:36;-4.89;118.99
66102;HTU21D;52883;51.094;5.880;2024-01-10T09:01:05;-4.87;118.99
66102;HTU21D;52883;51.094;5.880;2024-01-10T09:03:31;-4.84;118.99
66102;HTU21D;52883;51.094;5.880;2024-01-10T09:05:56;-4.78;118.99
66102;HTU21D;52883;51.094;5.880;2024-01-10T09:08:22;-4.73;118.99
66102;HTU21D;52883;51.094;5.880;2024-01-10T09:10:48;-4.72;118.99
66102;HTU21D;52883;51.094;5.880;2024-01-10T09:13:16;-4.75;118.99
66102;HTU21D;52883;51.094;5.880;2024-01-10T09:15:42;-4.70;118.99
66102;HTU21D;52883;51.094;5.880;2024-01-10T09:18:08;-4.61;118.99
66102;HTU21D;52883;51.094;5.880;2024-01-10T09:20:34;-4.53;118.99
66102;HTU21D;52883;51.094;5.880;2024-01-10T09:23:00;-4.41;118.99
66102;HTU21D;52883;51.094;5.880;2024-01-10T09:25:26;-4.28;118.99
66102;HTU21D;52883;51.094;5.880;2024-01-10T09:27:52;-4.12;118.99
66102;HTU21D;52883;51.094;5.880;2024-01-10T09:30:17;-4.06;117.77
66102;HTU21D;52883;51.094;5.880;2024-01-10T09:32:43;-3.92;118.99
66102;HTU21D;52883;51.094;5.880;2024-01-10T09:35:10;-3.87;118.99
66102;HTU21D;52883;51.094;5.880;2024-01-10T09:37:36;-3.74;118.99
66102;HTU21D;52883;51.094;5.880;2024-01-10T09:40:02;-3.54;118.99
66102;HTU21D;52883;51.094;5.880;2024-01-10T09:42:29;-3.45;118.99
66102;HTU21D;52883;51.094;5.880;2024-01-10T09:44:57;-3.40;117.56
66102;HTU21D;52883;51.094;5.880;2024-01-10T09:47:24;-3.28;118.99
66102;HTU21D;52883;51.094;5.880;2024-01-10T09:49:50;-3.27;118.99
66102;HTU21D;52883;51.094;5.880;2024-01-10T09:52:24;-3.31;111.99
66102;HTU21D;52883;51.094;5.880;2024-01-10T09:54:57;-3.31;118.99
66102;HTU21D;52883;51.094;5.880;2024-01-10T09:57:26;-3.31;118.99
66102;HTU21D;52883;51.094;5.880;2024-01-10T09:59:52;-3.25;118.53
66102;HTU21D;52883;51.094;5.880;2024-01-10T10:02:21;-3.33;111.84
66102;HTU21D;52883;51.094;5.880;2024-01-10T10:05:07;-3.42;108.42
66102;HTU21D;52883;51.094;5.880;2024-01-10T10:07:50;-3.48;114.59
66102;HTU21D;52883;51.094;5.880;2024-01-10T10:10:17;-3.53;111.77
66102;HTU21D;52883;51.094;5.880;2024-01-10T10:12:45;-3.52;110.36
66102;HTU21D;52883;51.094;5.880;2024-01-10T10:15:12;-3.57;103.28
66102;HTU21D;52883;51.094;5.880;2024-01-10T10:17:39;-3.64;102.35
66102;HTU21D;52883;51.094;5.880;2024-01-10T10:20:12;-3.61;106.47
66102;HTU21D;52883;51.094;5.880;2024-01-10T10:22:39;-3.62;98.97
66102;HTU21D;52883;51.094;5.880;2024-01-10T10:25:05;-3.64;93.30
66102;HTU21D;52883;51.094;5.880;2024-01-10T10:27:30;-3.67;103.36
66102;HTU21D;52883;51.094;5.880;2024-01-10T10:29:57;-3.69;95.78
66102;HTU21D;52883;51.094;5.880;2024-01-10T10:32:22;-3.68;101.38
66102;HTU21D;52883;51.094;5.880;2024-01-10T10:34:48;-3.65;100.26
66102;HTU21D;52883;51.094;5.880;2024-01-10T10:37:13;-3.60;100.32
66102;HTU21D;52883;51.094;5.880;2024-01-10T10:39:40;-3.53;102.78
66102;HTU21D;52883;51.094;5.880;2024-01-10T10:42:07;-3.55;93.20
66102;HTU21D;52883;51.094;5.880;2024-01-10T10:44:35;-3.51;100.81
66102;HTU21D;52883;51.094;5.880;2024-01-10T10:47:04;-3.50;102.53
66102;HTU21D;52883;51.094;5.880;2024-01-10T10:49:34;-3.50;100.44
66102;HTU21D;52883;51.094;5.880;2024-01-10T10:51:59;-3.43;104.92
66102;HTU21D;52883;51.094;5.880;2024-01-10T10:54:29;-3.28;106.36
66102;HTU21D;52883;51.094;5.880;2024-01-10T10:56:57;-3.11;96.25
66102;HTU21D;52883;51.094;5.880;2024-01-10T10:59:26;-3.00;100.50
66102;HTU21D;52883;51.094;5.880;2024-01-10T11:01:54;-2.90;96.73
66102;HTU21D;52883;51.094;5.880;2024-01-10T11:04:21;-2.77;93.63
66102;HTU21D;52883;51.094;5.880;2024-01-10T11:06:47;-2.65;87.34
66102;HTU21D;52883;51.094;5.880;2024-01-10T11:09:16;-2.57;80.05
66102;HTU21D;52883;51.094;5.880;2024-01-10T11:20:42;-2.08;82.86
66102;HTU21D;52883;51.094;5.880;2024-01-10T11:25:41;-1.84;62.88
66102;HTU21D;52883;51.094;5.880;2024-01-10T11:28:07;-1.68;63.02
66102;HTU21D;52883;51.094;5.880;2024-01-10T11:30:37;-1.54;64.01
66102;HTU21D;52883;51.094;5.880;2024-01-10T11:33:24;-1.28;82.05
66102;HTU21D;52883;51.094;5.880;2024-01-10T11:38:31;-1.12;69.80
66102;HTU21D;52883;51.094;5.880;2024-01-10T11:40:57;-0.97;68.61
66102;HTU21D;52883;51.094;5.880;2024-01-10T11:43:23;-0.97;55.95
66102;HTU21D;52883;51.094;5.880;2024-01-10T11:45:54;-0.82;69.05
66102;HTU21D;52883;51.094;5.880;2024-01-10T11:48:27;-0.74;59.88
66102;HTU21D;52883;51.094;5.880;2024-01-10T11:50:57;-0.61;68.08
66102;HTU21D;52883;51.094;5.880;2024-01-10T11:53:44;-0.53;59.99
66102;HTU21D;52883;51.094;5.880;2024-01-10T11:56:16;-0.45;47.99
66102;HTU21D;52883;51.094;5.880;2024-01-10T11:58:53;-0.27;58.51
66102;HTU21D;52883;51.094;5.880;2024-01-10T12:01:19;-0.11;51.27
66102;HTU21D;52883;51.094;5.880;2024-01-10T12:03:46;-0.12;47.55
66102;HTU21D;52883;51.094;5.880;2024-01-10T12:06:14;-0.21;42.23
66102;HTU21D;52883;51.094;5.880;2024-01-10T12:08:40;-0.39;40.84
66102;HTU21D;52883;51.094;5.880;2024-01-10T12:11:05;-0.43;43.52
66102;HTU21D;52883;51.094;5.880;2024-01-10T12:13:31;-0.60;43.69
66102;HTU21D;52883;51.094;5.880;2024-01-10T12:15:57;-0.65;43.89
66102;HTU21D;52883;51.094;5.880;2024-01-10T12:18:23;-0.81;43.29
66102;HTU21D;52883;51.094;5.880;2024-01-10T12:20:49;-0.94;39.56
66102;HTU21D;52883;51.094;5.880;2024-01-10T12:23:15;-0.96;46.22
66102;HTU21D;52883;51.094;5.880;2024-01-10T12:25:40;-0.94;44.83
66102;HTU21D;52883;51.094;5.880;2024-01-10T12:28:06;-0.98;40.96
66102;HTU21D;52883;51.094;5.880;2024-01-10T12:30:32;-1.04;45.25
66102;HTU21D;52883;51.094;5.880;2024-01-10T12:33:01;-1.09;43.81
66102;HTU21D;52883;51.094;5.880;2024-01-10T12:35:26;-1.08;40.07
66102;HTU21D;52883;51.094;5.880;2024-01-10T12:37:56;-1.10;42.77
66102;HTU21D;52883;51.094;5.880;2024-01-10T12:40:21;-1.11;40.99
66102;HTU21D;52883;51.094;5.880;2024-01-10T12:42:47;-1.08;40.59
66102;HTU21D;52883;51.094;5.880;2024-01-10T12:45:23;-1.10;41.71
66102;HTU21D;52883;51.094;5.880;2024-01-10T12:47:48;-1.03;42.53
66102;HTU21D;52883;51.094;5.880;2024-01-10T12:50:14;-0.98;43.66
66102;HTU21D;52883;51.094;5.880;2024-01-10T12:52:41;-0.94;45.16
66102;HTU21D;52883;51.094;5.880;2024-01-10T12:55:08;-0.88;46.64
66102;HTU21D;52883;51.094;5.880;2024-01-10T12:57:35;-0.83;45.63
66102;HTU21D;52883;51.094;5.880;2024-01-10T13:00:00;-0.79;45.32
66102;HTU21D;52883;51.094;5.880;2024-01-10T13:02:32;-0.77;42.60
66102;HTU21D;52883;51.094;5.880;2024-01-10T13:05:11;-0.81;40.88
66102;HTU21D;52883;51.094;5.880;2024-01-10T13:07:38;-0.84;42.16
66102;HTU21D;52883;51.094;5.880;2024-01-10T13:10:04;-0.85;41.10
66102;HTU21D;52883;51.094;5.880;2024-01-10T13:12:30;-0.81;40.60
66102;HTU21D;52883;51.094;5.880;2024-01-10T13:14:55;-0.73;41.65
66102;HTU21D;52883;51.094;5.880;2024-01-10T13:17:22;-0.59;40.88
66102;HTU21D;52883;51.094;5.880;2024-01-10T13:19:47;-0.58;39.23
66102;HTU21D;52883;51.094;5.880;2024-01-10T13:22:15;-0.47;42.00
66102;HTU21D;52883;51.094;5.880;2024-01-10T13:24:45;-0.45;40.97
66102;HTU21D;52883;51.094;5.880;2024-01-10T13:27:12;-0.35;41.45
66102;HTU21D;52883;51.094;5.880;2024-01-10T13:29:38;-0.26;40.29
66102;HTU21D;52883;51.094;5.880;2024-01-10T13:32:04;-0.21;40.22
66102;HTU21D;52883;51.094;5.880;2024-01-10T13:34:30;-0.17;39.88
66102;HTU21D;52883;51.094;5.880;2024-01-10T13:36:56;-0.14;40.45
66102;HTU21D;52883;51.094;5.880;2024-01-10T13:39:22;-0.03;39.36
66102;HTU21D;52883;51.094;5.880;2024-01-10T13:41:47;-0.00;38.69
66102;HTU21D;52883;51.094;5.880;2024-01-10T13:44:13;0.02;39.98
66102;HTU21D;52883;51.094;5.880;2024-01-10T13:46:39;0.07;40.03
66102;HTU21D;52883;51.094;5.880;2024-01-10T13:49:05;0.13;40.23
66102;HTU21D;52883;51.094;5.880;2024-01-10T13:51:31;0.17;38.55
66102;HTU21D;52883;51.094;5.880;2024-01-10T13:53:57;0.19;39.06
66102;HTU21D;52883;51.094;5.880;2024-01-10T13:56:23;0.21;40.40
66102;HTU21D;52883;51.094;5.880;2024-01-10T13:58:49;0.20;38.33
66102;HTU21D;52883;51.094;5.880;2024-01-10T14:01:15;0.28;40.44
66102;HTU21D;52883;51.094;5.880;2024-01-10T14:03:40;0.33;40.09
66102;HTU21D;52883;51.094;5.880;2024-01-10T14:06:06;0.43;39.75
66102;HTU21D;52883;51.094;5.880;2024-01-10T14:08:32;0.39;36.38
66102;HTU21D;52883;51.094;5.880;2024-01-10T14:10:57;0.39;38.35
66102;HTU21D;52883;51.094;5.880;2024-01-10T14:13:23;0.49;36.88
66102;HTU21D;52883;51.094;5.880;2024-01-10T14:15:49;0.55;38.33
66102;HTU21D;52883;51.094;5.880;2024-01-10T14:18:14;0.63;37.77
66102;HTU21D;52883;51.094;5.880;2024-01-10T14:20:40;0.68;35.89
66102;HTU21D;52883;51.094;5.880;2024-01-10T14:23:06;0.72;36.15
66102;HTU21D;52883;51.094;5.880;2024-01-10T14:25:31;0.75;34.66
66102;HTU21D;52883;51.094;5.880;2024-01-10T14:27:57;0.78;35.41
66102;HTU21D;52883;51.094;5.880;2024-01-10T14:30:25;0.82;34.82
66102;HTU21D;52883;51.094;5.880;2024-01-10T14:32:52;0.81;34.28
66102;HTU21D;52883;51.094;5.880;2024-01-10T14:35:18;0.83;33.05
66102;HTU21D;52883;51.094;5.880;2024-01-10T14:37:44;0.89;32.79
66102;HTU21D;52883;51.094;5.880;2024-01-10T14:40:10;0.87;35.98
66102;HTU21D;52883;51.094;5.880;2024-01-10T14:42:37;0.91;34.41
66102;HTU21D;52883;51.094;5.880;2024-01-10T14:45:03;0.90;37.02
66102;HTU21D;52883;51.094;5.880;2024-01-10T14:47:29;0.93;37.61
66102;HTU21D;52883;51.094;5.880;2024-01-10T14:49:56;0.88;36.57
66102;HTU21D;52883;51.094;5.880;2024-01-10T14:52:23;0.86;37.14
66102;HTU21D;52883;51.094;5.880;2024-01-10T14:54:51;0.82;37.43
66102;HTU21D;52883;51.094;5.880;2024-01-10T14:57:17;0.86;35.56
66102;HTU21D;52883;51.094;5.880;2024-01-10T14:59:43;0.88;36.34
66102;HTU21D;52883;51.094;5.880;2024-01-10T15:02:08;0.90;34.05
66102;HTU21D;52883;51.094;5.880;2024-01-10T15:04:39;0.89;34.63
66102;HTU21D;52883;51.094;5.880;2024-01-10T15:07:05;0.84;34.70
66102;HTU21D;52883;51.094;5.880;2024-01-10T15:09:32;0.81;35.89
66102;HTU21D;52883;51.094;5.880;2024-01-10T15:11:57;0.74;34.13
66102;HTU21D;52883;51.094;5.880;2024-01-10T15:14:23;0.74;33.73
66102;HTU21D;52883;51.094;5.880;2024-01-10T15:16:48;0.69;35.23
66102;HTU21D;52883;51.094;5.880;2024-01-10T15:19:14;0.62;34.45